Time;durP1;ratioP1;P1;durP2;ratioP2;P2;SDS_P1;SDS_P2;PMS_P1;PMS_P2;Temp;Humidity;BMP_temperature;BMP_pressure;BME280_temperature;BME280_humidity;BME280_pressure;Samples;Min_cycle;Max_cycle;Signal;HPM_P1;HPM_P2
2023/11/20 00:01:08;;;;;;;62.95;40.53;;;;;;;;;;5092623;28;20502;-76
2023/11/20 00:04:13;;;;;;;57.05;39.60;;;;;;;;;;5080170;28;20047;-75
2023/11/20 00:07:17;;;;;;;59.47;40.10;;;;;;;;;;5091879;28;20067;-73
2023/11/20 00:10:22;;;;;;;63.70;40.38;;;;;;;;;;5079890;28;20502;-75
2023/11/20 00:13:26;;;;;;;66.50;42.50;;;;;;;;;;5093059;28;20043;-74
2023/11/20 00:16:30;;;;;;;62.15;41.97;;;;;;;;;;5080152;28;20494;-74
2023/11/20 00:19:34;;;;;;;69.93;45.38;;;;;;;;;;5091872;28;20043;-75
2023/11/20 00:22:42;;;;;;;58.53;41.50;;;;;;;;;;5079986;28;20048;-75
2023/11/20 00:25:46;;;;;;;60.38;40.65;;;;;;;;;;5092194;28;20071;-73
2023/11/20 00:28:53;;;;;;;67.10;40.45;;;;;;;;;;5091621;28;20067;-73
2023/11/20 00:31:57;;;;;;;60.20;38.92;;;;;;;;;;5091190;28;20043;-73
2023/11/20 00:35:01;;;;;;;61.55;40.00;;;;;;;;;;5078593;28;20043;-74
2023/11/20 00:38:06;;;;;;;58.72;39.72;;;;;;;;;;5091733;28;20490;-74
2023/11/20 00:41:10;;;;;;;58.65;37.47;;;;;;;;;;5092463;28;20051;-74
2023/11/20 00:44:14;;;;;;;63.85;39.30;;;;;;;;;;5092953;28;20191;-74
2023/11/20 00:47:19;;;;;;;56.90;38.75;;;;;;;;;;5097143;28;20407;-74
2023/11/20 00:50:23;;;;;;;65.07;38.85;;;;;;;;;;5095907;28;20499;-73
2023/11/20 00:53:28;;;;;;;60.55;39.95;;;;;;;;;;5094865;28;20043;-73
2023/11/20 00:56:32;;;;;;;58.40;39.88;;;;;;;;;;5094944;28;20043;-73
2023/11/20 00:59:36;;;;;;;57.88;39.30;;;;;;;;;;5095490;28;20055;-74
2023/11/20 01:02:41;;;;;;;55.13;38.90;;;14.90;99.90;;;;;;5094695;28;20055;-74
2023/11/20 01:05:46;;;;;;;56.58;38.38;;;;;;;;;;5094432;28;20526;-74
2023/11/20 01:08:50;;;;;;;62.25;39.10;;;;;;;;;;5095712;28;20051;-74
2023/11/20 01:11:55;;;;;;;52.25;38.25;;;;;;;;;;5082164;28;20054;-74
2023/11/20 01:14:59;;;;;;;55.58;37.42;;;;;;;;;;5081904;28;20047;-74
2023/11/20 01:18:04;;;;;;;54.58;39.33;;;;;;;;;;5082224;28;20051;-74
2023/11/20 01:21:08;;;;;;;61.35;38.97;;;;;;;;;;5094756;28;20113;-73
2023/11/20 01:24:14;;;;;;;53.17;39.05;;;14.20;99.90;;;;;;5082333;28;20506;-73
2023/11/20 01:27:18;;;;;;;54.85;37.95;;;;;;;;;;5094635;28;20522;-74
2023/11/20 01:30:22;;;;;;;60.00;40.20;;;;;;;;;;5094665;28;20376;-73
2023/11/20 01:33:27;;;;;;;63.75;42.10;;;;;;;;;;5081483;28;20031;-73
2023/11/20 01:36:31;;;;;;;61.38;41.95;;;;;;;;;;5082389;28;20042;-73
2023/11/20 01:39:39;;;;;;;60.70;39.72;;;13.80;99.90;;;;;;5095484;28;20384;-73
2023/11/20 01:42:43;;;;;;;59.25;38.65;;;;;;;;;;5094345;28;20047;-75
2023/11/20 01:45:48;;;;;;;52.25;37.70;;;13.70;99.90;;;;;;5095001;28;20055;-75
2023/11/20 01:48:52;;;;;;;52.88;38.13;;;;;;;;;;5095080;28;20035;-75
2023/11/20 01:51:58;;;;;;;57.20;39.85;;;;;;;;;;5093772;28;20043;-75
2023/11/20 01:55:02;;;;;;;59.03;38.17;;;;;;;;;;5095311;28;20047;-76
2023/11/20 01:58:08;;;;;;;56.13;38.72;;;;;;;;;;5083292;28;20047;-75
2023/11/20 02:01:13;;;;;;;54.13;37.38;;;;;;;;;;5084188;28;20047;-74
2023/11/20 02:04:20;;;;;;;56.45;39.63;;;11.80;99.90;;;;;;5095495;28;20051;-74
2023/11/20 02:07:25;;;;;;;49.92;37.83;;;;;;;;;;5096171;28;20080;-75
2023/11/20 02:10:29;;;;;;;51.67;37.47;;;;;;;;;;5095508;28;20125;-75
2023/11/20 02:13:35;;;;;;;59.20;40.13;;;;;;;;;;5082842;28;20526;-74
2023/11/20 02:16:39;;;;;;;56.28;37.88;;;;;;;;;;5083263;28;20040;-75
2023/11/20 02:19:47;;;;;;;51.58;33.92;;;13.90;99.90;;;;;;5083069;28;20534;-74
2023/11/20 02:22:52;;;;;;;47.40;34.85;;;;;;;;;;5083044;28;20039;-73
2023/11/20 02:26:16;;;;;;;45.88;33.63;;;;;;;;;;5081326;28;20407;-75
2023/11/20 02:29:43;;;;;;;47.83;32.70;;;14.60;99.90;;;;;;5095486;28;20396;-74
2023/11/20 02:32:47;;;;;;;44.72;31.35;;;;;;;;;;5092986;28;20039;-73
2023/11/20 02:35:51;;;;;;;46.08;31.42;;;;;;;;;;5093479;28;20050;-73
2023/11/20 02:38:56;;;;;;;44.10;30.83;;;;;;;;;;5092844;28;20066;-73
2023/11/20 02:42:00;;;;;;;43.75;30.15;;;;;;;;;;5080103;28;20098;-73
2023/11/20 02:45:06;;;;;;;46.85;31.38;;;;;;;;;;5092635;28;20597;-74
2023/11/20 02:48:11;;;;;;;44.38;29.42;;;;;;;;;;5079870;28;20043;-73
2023/11/20 02:51:16;;;;;;;38.63;28.52;;;;;;;;;;5080137;28;20043;-73
2023/11/20 02:54:20;;;;;;;41.35;29.15;;;;;;;;;;5092356;28;20046;-75
2023/11/20 02:57:25;;;;;;;44.92;27.95;;;;;;;;;;5092589;28;20055;-73
2023/11/20 03:00:29;;;;;;;39.03;27.08;;;;;;;;;;5092656;28;20043;-73
2023/11/20 03:03:34;;;;;;;42.53;26.55;;;;;;;;;;5092326;28;20503;-75
2023/11/20 03:06:38;;;;;;;36.70;25.40;;;;;;;;;;5091523;28;20427;-75
2023/11/20 03:09:42;;;;;;;41.67;26.25;;;;;;;;;;5079822;28;20039;-74
2023/11/20 03:12:47;;;;;;;39.20;25.17;;;;;;;;;;5079698;28;20047;-75
2023/11/20 03:15:51;;;;;;;35.42;26.13;;;;;;;;;;5092041;28;20039;-75
2023/11/20 03:18:55;;;;;;;37.72;24.15;;;;;;;;;;5092309;28;20047;-75
2023/11/20 03:22:02;;;;;;;43.92;25.30;;;;;;;;;;5080432;28;20039;-75
2023/11/20 03:25:06;;;;;;;40.65;26.92;;;;;;;;;;5081740;28;20113;-75
2023/11/20 03:28:10;;;;;;;36.78;25.02;;;;;;;;;;5093860;28;20097;-75
2023/11/20 03:31:14;;;;;;;37.50;24.48;;;;;;;;;;5093081;28;20046;-75
2023/11/20 03:34:19;;;;;;;34.20;24.10;;;;;;;;;;5091929;28;20039;-75
2023/11/20 03:37:23;;;;;;;36.35;22.73;;;;;;;;;;5091858;28;20523;-75
2023/11/20 03:40:28;;;;;;;34.70;22.80;;;;;;;;;;5079504;28;20043;-75
2023/11/20 03:43:32;;;;;;;37.47;22.75;;;;;;;;;;5078989;28;20042;-75
2023/11/20 03:46:36;;;;;;;34.55;22.17;;;;;;;;;;5091486;28;20392;-75
2023/11/20 03:49:40;;;;;;;33.53;20.95;;;;;;;;;;5079258;28;20035;-75
2023/11/20 03:52:44;;;;;;;30.88;20.45;;;;;;;;;;5079266;28;20054;-75
2023/11/20 03:55:49;;;;;;;29.17;19.75;;;;;;;;;;5091685;28;20051;-75
2023/11/20 03:58:53;;;;;;;30.08;19.83;;;;;;;;;;5079331;28;20411;-75
2023/11/20 04:01:57;;;;;;;27.55;17.27;;;;;;;;;;5078984;28;20059;-75
2023/11/20 04:05:05;;;;;;;30.13;17.95;;;;;;;;;;5091355;28;20514;-75
2023/11/20 04:08:09;;;;;;;35.47;19.17;;;;;;;;;;5091041;28;20118;-74
2023/11/20 04:11:14;;;;;;;30.60;18.75;;;;;;;;;;5079121;28;20039;-73
2023/11/20 04:14:18;;;;;;;25.60;17.20;;;;;;;;;;5078791;28;20043;-73
2023/11/20 04:17:22;;;;;;;25.23;17.45;;;;;;;;;;5091429;28;20222;-73
2023/11/20 04:20:29;;;;;;;27.58;17.63;;;;;;;;;;5095869;28;20050;-72
2023/11/20 04:23:33;;;;;;;27.35;17.25;;;;;;;;;;5083043;28;20035;-72
2023/11/20 04:26:38;;;;;;;32.97;18.23;;;;;;;;;;5095617;28;20055;-73
2023/11/20 04:29:43;;;;;;;27.38;17.10;;;;;;;;;;5095767;28;20043;-73
2023/11/20 04:32:47;;;;;;;27.08;16.95;;;;;;;;;;5096016;28;20055;-72
2023/11/20 04:35:51;;;;;;;28.08;17.90;;;;;;;;;;5095684;28;20043;-73
2023/11/20 04:38:55;;;;;;;27.48;15.93;;;;;;;;;;5095579;28;20055;-73
2023/11/20 04:42:00;;;;;;;25.33;16.23;;;;;;;;;;5095516;28;20502;-74
2023/11/20 04:45:05;;;;;;;28.67;16.80;;;;;;;;;;5095703;28;20050;-74
2023/11/20 04:48:10;;;;;;;30.15;17.13;;;;;;;;;;5095309;28;20047;-73
2023/11/20 04:51:20;;;;;;;29.45;16.73;;;13.40;99.90;;;;;;5095495;28;20051;-73
2023/11/20 04:54:24;;;;;;;25.05;15.80;;;;;;;;;;5082251;28;20036;-73
2023/11/20 04:57:28;;;;;;;31.15;16.52;;;;;;;;;;5094528;28;20043;-73
2023/11/20 05:00:33;;;;;;;27.17;16.80;;;;;;;;;;5094783;28;20039;-73
2023/11/20 05:03:38;;;;;;;24.38;15.30;;;13.30;99.90;;;;;;5094544;28;20039;-73
2023/11/20 05:06:42;;;;;;;27.50;16.50;;;;;;;;;;5095340;28;21202;-74
2023/11/20 05:09:46;;;;;;;28.77;16.83;;;;;;;;;;5095220;28;20039;-74
2023/11/20 05:12:53;;;;;;;29.88;15.00;;;;;;;;;;5094503;28;20051;-74
2023/11/20 05:15:57;;;;;;;26.15;15.80;;;;;;;;;;5094767;28;20498;-73
2023/11/20 05:19:02;;;;;;;30.70;15.10;;;;;;;;;;5095048;28;20050;-74
2023/11/20 05:22:07;;;;;;;27.60;15.48;;;;;;;;;;5095161;28;20122;-74
2023/11/20 05:25:11;;;;;;;33.38;15.05;;;;;;;;;;5094913;28;20039;-73
2023/11/20 05:28:15;;;;;;;23.95;14.75;;;;;;;;;;5094441;28;20047;-74
2023/11/20 05:31:20;;;;;;;26.27;15.27;;;;;;;;;;5094557;28;20071;-73
2023/11/20 05:34:24;;;;;;;23.13;12.68;;;;;;;;;;5094358;28;20043;-74
2023/11/20 05:37:30;;;;;;;23.20;13.95;;;;;;;;;;5094047;28;20043;-73
2023/11/20 05:40:35;;;;;;;23.60;14.45;;;;;;;;;;5095729;28;20051;-73
2023/11/20 05:43:40;;;;;;;22.70;13.30;;;;;;;;;;5081912;28;20043;-73
2023/11/20 05:46:45;;;;;;;29.70;13.07;;;;;;;;;;5082330;28;20055;-74
2023/11/20 05:49:51;;;;;;;28.02;13.02;;;;;;;;;;5083272;28;20039;-73
2023/11/20 05:52:55;;;;;;;24.52;13.80;;;;;;;;;;5084136;28;20517;-73
2023/11/20 05:56:00;;;;;;;24.48;13.70;;;;;;;;;;5096129;28;20051;-75
2023/11/20 05:59:10;;;;;;;26.20;14.07;;;;;;;;;;5096716;28;20051;-75
2023/11/20 06:02:14;;;;;;;37.80;15.70;;;;;;;;;;5097283;28;20042;-73
2023/11/20 06:05:19;;;;;;;33.03;14.95;;;;;;;;;;5094991;28;20035;-73
2023/11/20 06:08:23;;;;;;;35.15;15.15;;;;;;;;;;5096733;28;20051;-73
2023/11/20 06:11:31;;;;;;;33.40;14.25;;;;;;;;;;5095547;28;20510;-73
2023/11/20 06:14:35;;;;;;;30.90;16.52;;;;;;;;;;5095686;28;20051;-74
2023/11/20 06:17:39;;;;;;;33.00;15.35;;;;;;;;;;5094255;28;20494;-74
2023/11/20 06:20:44;;;;;;;22.27;14.27;;;;;;;;;;5094607;28;20039;-74
2023/11/20 06:23:49;;;;;;;40.65;15.23;;;;;;;;;;5095985;28;20043;-73
2023/11/20 06:26:54;;;;;;;34.50;14.45;;;;;;;;;;5096253;28;20081;-73
2023/11/20 06:29:59;;;;;;;28.08;15.50;;;;;;;;;;5084405;28;20043;-68
2023/11/20 06:33:04;;;;;;;30.40;14.48;;;;;;;;;;5092640;28;20510;-70
2023/11/20 06:36:09;;;;;;;42.30;17.23;;;;;;;;;;5093354;28;20375;-70
2023/11/20 06:39:14;;;;;;;51.97;18.00;;;;;;;;;;5092942;28;20043;-70
2023/11/20 06:42:18;;;;;;;55.45;22.60;;;;;;;;;;5091959;28;20047;-70
2023/11/20 06:45:22;;;;;;;51.05;20.10;;;;;;;;;;5092841;28;20117;-70
2023/11/20 06:48:36;;;;;;;68.25;25.73;;;;;;;;;;5092898;28;20054;-69
2023/11/20 06:51:44;;;;;;;46.45;20.77;;;;;;;;;;5093625;28;20042;-69
2023/11/20 06:54:48;;;;;;;48.90;19.00;;;;;;;;;;5092486;28;20047;-70
2023/11/20 06:57:52;;;;;;;39.78;17.77;;;;;;;;;;5092638;28;20057;-70
2023/11/20 07:00:56;;;;;;;50.17;18.95;;;;;;;;;;5092771;28;20533;-70
2023/11/20 07:04:01;;;;;;;48.83;18.52;;;17.70;99.90;;;;;;5079270;28;20043;-71
2023/11/20 07:07:06;;;;;;;48.90;18.38;;;;;;;;;;5091954;28;20423;-70
2023/11/20 07:10:11;;;;;;;43.42;18.20;;;;;;;;;;5092097;28;20051;-70
2023/11/20 07:13:16;;;;;;;52.13;19.58;;;;;;;;;;5092057;28;20051;-72
2023/11/20 07:16:20;;;;;;;23.67;13.55;;;;;;;;;;5092233;28;20368;-71
2023/11/20 07:19:25;;;;;;;33.78;14.07;;;;;;;;;;5091995;28;20047;-69
2023/11/20 07:22:36;;;;;;;26.65;14.27;;;;;;;;;;5092185;28;20059;-70
2023/11/20 07:25:42;;;;;;;27.00;13.98;;;;;;;;;;5091508;28;20420;-71
2023/11/20 07:28:46;;;;;;;29.88;14.57;;;;;;;;;;5091724;28;20040;-73
2023/11/20 07:31:50;;;;;;;26.27;15.15;;;;;;;;;;5092176;28;20141;-70
2023/11/20 07:34:55;;;;;;;32.55;13.85;;;;;;;;;;5092022;28;20043;-68
2023/11/20 07:37:59;;;;;;;20.65;11.98;;;;;;;;;;5092465;28;20046;-70
2023/11/20 07:41:05;;;;;;;17.77;11.25;;;;;;;;;;5079466;28;20414;-72
2023/11/20 07:44:11;;;;;;;22.95;12.27;;;15.50;99.90;;;;;;5092050;28;20055;-70
2023/11/20 07:47:16;;;;;;;24.35;13.40;;;;;;;;;;5091391;28;20408;-70
2023/11/20 07:50:22;;;;;;;20.42;12.07;;;;;;;;;;5079632;28;20047;-70
2023/11/20 07:53:27;;;;;;;21.48;11.77;;;;;;;;;;5091409;28;20055;-71
2023/11/20 07:56:31;;;;;;;21.58;11.52;;;;;;;;;;5092105;28;20043;-70
2023/11/20 07:59:35;;;;;;;17.05;10.80;;;;;;;;;;5091393;28;20130;-70
2023/11/20 08:02:41;;;;;;;20.70;12.23;;;;;;;;;;5091557;28;20051;-68
2023/11/20 08:05:46;;;;;;;21.50;11.07;;;;;;;;;;5091572;28;20550;-75
2023/11/20 08:08:51;;;;;;;16.85;9.55;;;;;;;;;;5092215;28;20043;-76
2023/11/20 08:11:55;;;;;;;12.57;8.18;;;;;;;;;;5093286;28;20392;-72
2023/11/20 08:15:00;;;;;;;14.90;7.55;;;;;;;;;;5091330;28;20047;-70
2023/11/20 08:18:04;;;;;;;11.88;6.57;;;;;;;;;;5091078;28;20061;-68
2023/11/20 08:21:08;;;;;;;14.68;6.82;;;;;;;;;;5091245;28;20046;-69
2023/11/20 08:24:13;;;;;;;10.48;5.88;;;;;;;;;;5090784;28;20028;-70
2023/11/20 08:27:17;;;;;;;12.50;6.35;;;;;;;;;;5091012;28;20047;-68
2023/11/20 08:30:22;;;;;;;10.20;6.53;;;;;;;;;;5078126;28;20040;-70
2023/11/20 08:33:27;;;;;;;16.75;8.45;;;17.00;99.90;;;;;;5090873;28;20387;-72
2023/11/20 08:36:34;;;;;;;14.95;10.68;;;;;;;;;;5078361;28;20371;-71
2023/11/20 08:39:39;;;;;;;15.88;10.20;;;;;;;;;;5078377;28;20059;-67
2023/11/20 08:42:45;;;;;;;16.33;7.38;;;;;;;;;;5089886;28;20039;-70
2023/11/20 08:45:51;;;;;;;12.63;6.03;;;;;;;;;;5091167;28;20049;-70
2023/11/20 08:48:55;;;;;;;11.52;5.80;;;;;;;;;;5091239;28;20039;-71
2023/11/20 08:51:59;;;;;;;16.70;7.88;;;;;;;;;;5090636;28;20047;-69
2023/11/20 08:55:07;;;;;;;15.85;8.25;;;;;;;;;;5090810;28;20043;-70
2023/11/20 08:58:11;;;;;;;16.58;7.93;;;;;;;;;;5090499;28;20044;-70
2023/11/20 09:01:16;;;;;;;15.00;7.70;;;;;;;;;;5078608;28;20095;-67
2023/11/20 09:04:21;;;;;;;16.77;8.82;;;;;;;;;;5091021;28;20040;-69
2023/11/20 09:07:25;;;;;;;17.38;8.10;;;;;;;;;;5094303;28;20052;-68
2023/11/20 09:10:29;;;;;;;16.75;8.45;;;;;;;;;;5094567;28;20036;-68
2023/11/20 09:13:34;;;;;;;15.07;7.68;;;;;;;;;;5094514;28;20403;-69
2023/11/20 09:16:39;;;;;;;18.85;8.73;;;;;;;;;;5094160;28;20040;-68
2023/11/20 09:19:46;;;;;;;21.45;9.57;;;17.80;99.90;;;;;;5082042;28;20040;-69
2023/11/20 09:22:51;;;;;;;21.63;8.80;;;;;;;;;;5081871;28;20039;-68
2023/11/20 09:25:56;;;;;;;17.95;8.10;;;;;;;;;;5093736;28;20388;-68
2023/11/20 09:29:01;;;;;;;14.15;7.97;;;;;;;;;;5092595;28;20044;-68
2023/11/20 09:32:06;;;;;;;17.50;8.13;;;19.10;99.90;;;;;;5092769;28;20040;-68
2023/11/20 09:35:10;;;;;;;13.80;7.80;;;;;;;;;;5093496;28;20042;-69
2023/11/20 09:38:14;;;;;;;16.60;6.97;;;;;;;;;;5093526;28;20043;-67
2023/11/20 09:41:19;;;;;;;19.52;7.07;;;;;;;;;;5093582;28;20043;-68
2023/11/20 09:44:27;;;;;;;13.48;5.85;;;17.90;99.90;;;;;;5093858;28;20491;-68
2023/11/20 09:47:34;;;;;;;9.55;4.90;;;18.00;99.90;;;;;;5093584;28;20055;-68
2023/11/20 09:50:39;;;;;;;11.25;5.28;;;;;;;;;;5093890;28;20039;-69
2023/11/20 09:53:49;;;;;;;11.43;5.38;;;17.20;99.90;;;;;;5093512;28;20040;-68
2023/11/20 09:56:53;;;;;;;21.30;6.82;;;;;;;;;;5081459;28;20213;-70
2023/11/20 09:59:58;;;;;;;19.30;6.47;;;;;;;;;;5093440;28;20035;-69
2023/11/20 10:03:05;;;;;;;15.88;6.05;;;19.30;99.90;;;;;;5093799;28;20081;-69
2023/11/20 10:06:12;;;;;;;15.23;5.85;;;16.70;99.90;;;;;;5093844;28;20055;-69
2023/11/20 10:09:17;;;;;;;20.70;8.45;;;;;;;;;;5093309;28;20055;-71
2023/11/20 10:12:27;;;;;;;16.73;9.15;;;17.80;99.90;;;;;;5080949;28;20047;-67
2023/11/20 10:15:33;;;;;;;14.57;7.85;;;;;;;;;;5080560;28;20043;-68
2023/11/20 10:18:39;;;;;;;25.27;9.95;;;;;;;;;;5093124;28;20043;-69
2023/11/20 10:21:48;;;;;;;14.68;7.60;;;18.00;99.90;;;;;;5080841;28;20055;-68
2023/11/20 10:24:53;;;;;;;18.80;8.15;;;;;;;;;;5093172;28;20506;-69
2023/11/20 10:27:57;;;;;;;16.38;6.40;;;;;;;;;;5080281;28;20380;-68
2023/11/20 10:31:01;;;;;;;12.80;5.05;;;;;;;;;;5092982;28;20033;-68
2023/11/20 10:34:06;;;;;;;14.90;4.65;;;;;;;;;;5092424;28;20043;-69
2023/11/20 10:37:11;;;;;;;11.10;4.32;;;;;;;;;;5092887;28;20032;-69
2023/11/20 10:40:17;;;;;;;12.73;4.38;;;18.40;99.90;;;;;;5092528;28;20043;-70
2023/11/20 10:43:22;;;;;;;8.23;3.80;;;;;;;;;;5092666;28;20035;-69
2023/11/20 10:46:29;;;;;;;9.63;3.80;;;;;;;;;;5092514;28;20043;-68
2023/11/20 10:49:38;;;;;;;17.40;4.55;;;18.40;99.90;;;;;;5092544;28;20484;-68
2023/11/20 10:52:43;;;;;;;18.25;6.40;;;;;;;;;;5092202;28;20059;-69
2023/11/20 10:55:54;;;;;;;20.02;6.32;;;18.10;99.90;;;;;;5092507;28;20047;-67
2023/11/20 10:59:01;;;;;;;21.27;6.43;;;18.30;99.90;;;;;;5092393;28;20047;-67
2023/11/20 11:02:10;;;;;;;15.80;6.07;;;;;;;;;;5092172;28;20510;-67
2023/11/20 11:05:14;;;;;;;14.90;4.60;;;;;;;;;;5092086;28;20039;-67
2023/11/20 11:08:20;;;;;;;17.80;4.53;;;;;;;;;;5091833;28;20058;-67
2023/11/20 11:11:25;;;;;;;10.48;3.58;;;;;;;;;;5091831;28;20049;-68
2023/11/20 11:14:29;;;;;;;11.65;3.20;;;;;;;;;;5079094;28;20036;-68
2023/11/20 11:17:40;;;;;;;14.15;4.07;;;17.70;99.90;;;;;;5091813;28;20039;-68
2023/11/20 11:20:58;;;;;;;8.35;3.03;;;18.20;99.90;;;;;;5091368;28;20055;-69
2023/11/20 11:24:09;;;;;;;11.93;3.83;;;18.90;99.90;;;;;;5091570;28;20055;-68
2023/11/20 11:27:16;;;;;;;6.00;3.10;;;18.10;99.90;;;;;;5091251;28;20050;-68
2023/11/20 11:30:22;;;;;;;13.70;3.97;;;19.40;99.90;;;;;;5091562;28;20046;-68
2023/11/20 11:33:35;;;;;;;13.70;4.50;;;18.00;99.90;;;;;;5091580;28;20051;-68
2023/11/20 11:37:19;;;;;;;11.77;4.20;;;17.40;99.90;;;;;;5090907;28;20047;-68
2023/11/20 11:40:39;;;;;;;16.77;4.18;;;18.10;99.90;;;;;;5091982;28;20047;-67
2023/11/20 11:43:55;;;;;;;11.05;3.65;;;17.10;99.90;;;;;;5091413;28;20047;-67
2023/11/20 11:47:04;;;;;;;9.40;3.10;;;18.00;99.90;;;;;;5091274;28;20463;-67
2023/11/20 11:50:08;;;;;;;11.18;3.08;;;;;;;;;;5091422;28;20519;-67
2023/11/20 11:53:12;;;;;;;12.18;4.82;;;;;;;;;;5091147;28;20024;-68
2023/11/20 11:56:17;;;;;;;11.25;3.78;;;;;;;;;;5079329;28;20479;-68
2023/11/20 11:59:51;;;;;;;13.20;3.90;;;18.10;99.90;;;;;;5091771;28;20047;-68
2023/11/20 12:03:11;;;;;;;15.80;4.28;;;18.20;99.90;;;;;;5091676;28;20051;-68
2023/11/20 12:06:16;;;;;;;10.40;3.30;;;;;;;;;;5078948;28;20498;-68
2023/11/20 12:09:20;;;;;;;12.75;3.22;;;;;;;;;;5091465;28;20055;-67
2023/11/20 12:12:54;;;;;;;13.73;3.47;;;18.10;99.90;;;;;;5078973;28;20040;-67
2023/11/20 12:16:06;;;;;;;14.98;4.10;;;18.10;99.90;;;;;;5090885;28;20039;-68
2023/11/20 12:19:11;;;;;;;10.35;3.17;;;18.40;99.90;;;;;;5091160;28;20498;-67
2023/11/20 12:22:17;;;;;;;12.35;3.17;;;18.30;99.90;;;;;;5091096;28;20051;-67
2023/11/20 12:25:21;;;;;;;8.63;3.45;;;;;;;;;;5090971;28;20490;-67
2023/11/20 12:28:33;;;;;;;6.07;2.85;;;18.30;99.90;;;;;;5090569;28;20051;-67
2023/11/20 12:31:38;;;;;;;10.60;3.17;;;;;;;;;;5091056;28;20039;-68
2023/11/20 12:34:42;;;;;;;12.70;2.70;;;;;;;;;;5091326;28;20396;-68
2023/11/20 12:37:47;;;;;;;6.50;2.22;;;;;;;;;;5090923;28;20036;-67
2023/11/20 12:40:52;;;;;;;12.38;2.50;;;18.40;99.90;;;;;;5094073;28;20040;-66
2023/11/20 12:43:57;;;;;;;15.00;3.17;;;;;;;;;;5082037;28;20047;-66
2023/11/20 12:47:04;;;;;;;12.93;2.80;;;;;;;;;;5093427;28;20405;-68
2023/11/20 12:50:13;;;;;;;7.07;2.22;;;;;;;;;;5094519;28;20036;-67
2023/11/20 12:53:19;;;;;;;11.25;3.08;;;;;;;;;;5059217;28;20036;-68
2023/11/20 12:56:25;;;;;;;17.92;2.60;;;;;;;;;;5094529;28;20043;-66
2023/11/20 12:59:29;;;;;;;13.80;3.35;;;;;;;;;;5094656;28;20036;-67
2023/11/20 13:02:34;;;;;;;13.32;3.25;;;;;;;;;;5094568;28;20051;-69
2023/11/20 13:05:53;;;;;;;10.95;2.50;;;18.30;99.90;;;;;;5094628;28;20685;-68
2023/11/20 13:08:58;;;;;;;15.90;3.05;;;;;;;;;;5094380;28;20054;-67
2023/11/20 13:12:02;;;;;;;9.55;2.50;;;;;;;;;;5094245;28;20028;-67
2023/11/20 13:15:09;;;;;;;8.10;2.58;;;;;;;;;;5094341;28;20040;-68
2023/11/20 13:18:18;;;;;;;10.85;2.10;;;19.50;99.90;;;;;;5094474;28;20479;-67
2023/11/20 13:21:24;;;;;;;11.05;2.95;;;19.40;99.90;;;;;;5094030;28;20508;-68
2023/11/20 13:24:29;;;;;;;9.60;2.63;;;18.50;99.90;;;;;;5094346;28;20047;-68
2023/11/20 13:27:34;;;;;;;11.82;2.58;;;;;;;;;;5081733;28;20522;-68
2023/11/20 13:30:55;;;;;;;18.77;2.67;;;18.60;99.90;;;;;;5094585;28;20400;-68
2023/11/20 13:33:59;;;;;;;;;;;17.60;99.90;;;;;;5094420;28;20035;-67
2023/11/20 13:37:04;;;;;;;8.70;1.98;;;;;;;;;;5094324;28;19954;-69
2023/11/20 13:40:12;;;;;;;7.50;1.70;;;18.60;99.90;;;;;;5081776;28;20380;-67
2023/11/20 13:43:17;;;;;;;14.40;2.60;;;;;;;;;;5094760;28;20039;-68
2023/11/20 13:46:21;;;;;;;7.97;2.10;;;17.80;99.90;;;;;;5081965;28;20036;-68
2023/11/20 13:49:26;;;;;;;7.20;2.17;;;;;;;;;;5094480;28;20067;-68
2023/11/20 13:52:31;;;;;;;10.77;2.20;;;;;;;;;;5093900;28;20040;-68
2023/11/20 13:55:35;;;;;;;11.13;2.22;;;;;;;;;;5094213;28;20036;-66
2023/11/20 13:58:39;;;;;;;6.53;2.30;;;;;;;;;;5093775;28;20032;-67
2023/11/20 14:01:44;;;;;;;11.73;2.30;;;;;;;;;;5093545;28;20036;-68
2023/11/20 14:04:49;;;;;;;13.02;2.33;;;;;;;;;;5093758;28;20045;-68
2023/11/20 14:07:53;;;;;;;10.20;2.53;;;;;;;;;;5092939;28;20044;-68
2023/11/20 14:10:58;;;;;;;11.25;2.50;;;;;;;;;;5093019;28;20495;-68
2023/11/20 14:14:03;;;;;;;9.20;3.20;;;;;;;;;;5081065;28;20051;-69
2023/11/20 14:17:07;;;;;;;14.70;2.90;;;18.30;99.90;;;;;;5093221;28;20040;-67
2023/11/20 14:20:12;;;;;;;9.90;3.15;;;;;;;;;;5093038;28;20364;-68
2023/11/20 14:23:18;;;;;;;12.32;3.28;;;;;;;;;;5080766;28;20032;-68
2023/11/20 14:26:22;;;;;;;13.05;3.30;;;;;;;;;;5092892;28;20350;-68
2023/11/20 14:29:27;;;;;;;8.10;3.10;;;;;;;;;;5093231;28;20040;-68
2023/11/20 14:32:31;;;;;;;8.55;3.13;;;;;;;;;;5092713;28;20487;-68
2023/11/20 14:35:36;;;;;;;12.32;3.83;;;;;;;;;;5092886;28;20385;-69
2023/11/20 14:38:40;;;;;;;11.60;3.08;;;;;;;;;;5093396;28;20044;-68
2023/11/20 14:41:51;;;;;;;;;;;18.30;99.90;;;;;;5070063;28;20036;-68
2023/11/20 14:44:58;;;;;;;12.52;2.80;;;19.40;99.90;;;;;;5092593;28;19927;-69
2023/11/20 14:48:02;;;;;;;8.45;2.35;;;;;;;;;;5092895;28;20055;-67
2023/11/20 14:51:07;;;;;;;8.13;2.55;;;;;;;;;;5092794;28;20028;-67
2023/11/20 14:54:12;;;;;;;9.43;2.55;;;;;;;;;;5079921;28;20032;-66
2023/11/20 14:57:17;;;;;;;16.48;3.50;;;;;;;;;;5092794;28;20044;-68
2023/11/20 15:00:23;;;;;;;8.68;2.90;;;;;;;;;;5092623;28;20039;-69
2023/11/20 15:03:28;;;;;;;7.22;2.50;;;;;;;;;;5091685;28;20040;-69
2023/11/20 15:06:32;;;;;;;12.25;3.03;;;;;;;;;;5091899;28;20032;-68
2023/11/20 15:09:37;;;;;;;8.80;2.58;;;;;;;;;;5092448;28;20461;-68
2023/11/20 15:12:41;;;;;;;7.70;2.30;;;;;;;;;;5091875;28;20032;-68
2023/11/20 15:15:46;;;;;;;12.85;2.65;;;;;;;;;;5092017;28;20048;-67
2023/11/20 15:18:50;;;;;;;4.93;1.73;;;;;;;;;;5091625;28;20039;-67
2023/11/20 15:21:55;;;;;;;8.65;2.60;;;;;;;;;;5067962;28;20380;-67
2023/11/20 15:25:00;;;;;;;7.53;1.83;;;;;;;;;;5092112;28;20040;-68
2023/11/20 15:28:04;;;;;;;5.85;2.08;;;;;;;;;;5091981;28;20056;-69
2023/11/20 15:31:08;;;;;;;9.10;2.97;;;;;;;;;;5079315;28;20369;-69
2023/11/20 15:34:13;;;;;;;11.55;3.47;;;;;;;;;;5091613;28;20044;-67
2023/11/20 15:37:17;;;;;;;12.88;4.80;;;;;;;;;;5079337;28;20519;-70
2023/11/20 15:40:21;;;;;;;10.95;3.38;;;;;;;;;;5078870;28;20040;-69
2023/11/20 15:43:26;;;;;;;13.93;3.97;;;;;;;;;;5091299;28;20043;-68
2023/11/20 15:46:30;;;;;;;14.75;3.80;;;;;;;;;;5091447;28;20036;-68
2023/11/20 15:49:35;;;;;;;9.48;3.40;;;;;;;;;;5091504;28;20044;-67
2023/11/20 15:52:39;;;;;;;10.43;3.75;;;;;;;;;;5090952;28;20036;-68
2023/11/20 15:55:44;;;;;;;11.75;3.80;;;;;;;;;;5091506;28;20069;-68
2023/11/20 15:58:48;;;;;;;9.57;3.70;;;;;;;;;;5091021;28;20044;-69
2023/11/20 16:01:53;;;;;;;9.95;3.63;;;18.40;99.90;;;;;;5091017;28;20040;-67
2023/11/20 16:04:58;;;;;;;15.50;4.95;;;;;;;;;;5078785;28;20051;-68
2023/11/20 16:08:02;;;;;;;8.80;3.42;;;;;;;;;;5090650;28;20086;-69
2023/11/20 16:11:06;;;;;;;9.23;4.63;;;;;;;;;;5091020;28;20044;-68
2023/11/20 16:14:10;;;;;;;17.52;3.53;;;;;;;;;;5093675;28;20036;-68
2023/11/20 16:17:15;;;;;;;15.82;3.33;;;;;;;;;;5097394;28;20597;-67
2023/11/20 16:20:19;;;;;;;7.88;3.60;;;;;;;;;;5085354;28;20047;-68
2023/11/20 16:23:23;;;;;;;8.65;2.58;;;;;;;;;;5097239;28;20032;-68
2023/11/20 16:26:27;;;;;;;19.95;5.05;;;;;;;;;;5097369;28;20036;-68
2023/11/20 16:29:32;;;;;;;8.52;4.00;;;;;;;;;;5097639;28;20523;-68
2023/11/20 16:32:36;;;;;;;8.63;4.20;;;;;;;;;;5097618;28;20369;-69
2023/11/20 16:35:41;;;;;;;14.10;4.38;;;;;;;;;;5097508;28;20043;-66
2023/11/20 16:38:45;;;;;;;16.77;5.57;;;;;;;;;;5097512;28;20036;-67
2023/11/20 16:41:52;;;;;;;8.25;3.60;;;17.20;99.90;;;;;;5097383;28;20041;-66
2023/11/20 16:44:56;;;;;;;10.65;5.15;;;;;;;;;;5097666;28;20110;-67
2023/11/20 16:48:00;;;;;;;10.30;4.25;;;;;;;;;;5097506;28;20047;-66
2023/11/20 16:51:05;;;;;;;12.38;4.57;;;;;;;;;;5097251;28;20495;-68
2023/11/20 16:54:10;;;;;;;9.30;3.97;;;;;;;;;;5097534;28;20040;-67
2023/11/20 16:57:14;;;;;;;10.13;4.40;;;;;;;;;;5097525;28;20044;-67
2023/11/20 17:00:19;;;;;;;12.65;4.18;;;;;;;;;;5097413;28;20036;-67
2023/11/20 17:03:24;;;;;;;5.15;3.08;;;;;;;;;;5097627;28;20053;-67
2023/11/20 17:06:28;;;;;;;9.65;3.10;;;;;;;;;;5097326;28;20036;-67
2023/11/20 17:09:34;;;;;;;7.32;3.00;;;;;;;;;;5097582;28;20136;-67
2023/11/20 17:12:38;;;;;;;10.20;3.30;;;;;;;;;;5097466;28;20036;-67
2023/11/20 17:15:42;;;;;;;13.68;3.90;;;;;;;;;;5097452;28;20047;-68
2023/11/20 17:18:46;;;;;;;7.75;3.65;;;;;;;;;;5097172;28;20397;-68
2023/11/20 17:21:51;;;;;;;11.40;4.10;;;18.00;99.90;;;;;;5096993;28;20039;-69
2023/11/20 17:24:56;;;;;;;11.05;4.55;;;;;;;;;;5095778;28;20051;-69
2023/11/20 17:28:00;;;;;;;8.43;3.55;;;;;;;;;;5093701;28;20441;-69
2023/11/20 17:31:05;;;;;;;11.07;5.57;;;;;;;;;;5093864;28;20036;-69
2023/11/20 17:34:09;;;;;;;15.45;4.28;;;;;;;;;;5093792;28;20032;-68
2023/11/20 17:37:14;;;;;;;21.80;6.40;;;;;;;;;;5093487;28;20040;-69
2023/11/20 17:40:18;;;;;;;12.40;5.07;;;;;;;;;;5093518;28;20032;-69
2023/11/20 17:43:22;;;;;;;11.65;5.10;;;;;;;;;;5093814;28;20070;-69
2023/11/20 17:46:27;;;;;;;19.45;7.93;;;;;;;;;;5093694;28;20058;-69